createdAt,value
2022-09-24T00:01:38.757Z,15.70
2022-09-24T00:04:09.664Z,15.70
2022-09-24T00:06:44.420Z,15.70
2022-09-24T00:09:14.510Z,15.70
2022-09-24T00:11:43.988Z,15.70
2022-09-24T00:14:11.342Z,15.70
2022-09-24T00:16:40.515Z,15.80
2022-09-24T00:19:07.652Z,15.80
2022-09-24T00:21:37.294Z,15.80
2022-09-24T00:24:33.840Z,15.80
2022-09-24T00:27:01.033Z,15.80
2022-09-24T00:29:27.986Z,15.80
2022-09-24T00:31:55.106Z,15.80
2022-09-24T00:34:22.042Z,15.70
2022-09-24T00:36:48.923Z,15.80
2022-09-24T00:39:16.692Z,15.80
2022-09-24T00:41:47.844Z,15.70
2022-09-24T00:44:45.849Z,15.70
2022-09-24T00:47:27.833Z,15.80
2022-09-24T00:50:18.357Z,15.80
2022-09-24T00:53:07.565Z,15.80
2022-09-24T00:55:36.852Z,15.80
2022-09-24T00:58:07.298Z,15.80
2022-09-24T01:00:37.094Z,15.70
2022-09-24T01:03:11.455Z,15.70
2022-09-24T01:05:39.230Z,15.70
2022-09-24T01:08:14.581Z,15.70
2022-09-24T01:11:18.300Z,15.70
2022-09-24T01:14:36.652Z,15.70
2022-09-24T01:17:14.359Z,15.70
2022-09-24T01:20:17.808Z,15.70
2022-09-24T01:23:21.259Z,15.70
2022-09-24T01:26:33.509Z,15.70
2022-09-24T01:29:25.157Z,15.70
2022-09-24T01:32:07.389Z,15.70
2022-09-24T01:35:00.386Z,15.70
2022-09-24T01:37:31.830Z,15.70
2022-09-24T01:40:00.238Z,15.60
2022-09-24T01:42:30.332Z,15.60
2022-09-24T01:44:58.242Z,15.60
2022-09-24T01:47:39.812Z,15.50
2022-09-24T01:50:17.186Z,15.50
2022-09-24T01:53:11.411Z,15.60
2022-09-24T01:55:48.938Z,15.50
2022-09-24T01:58:29.773Z,15.50
2022-09-24T02:01:08.197Z,15.50
2022-09-24T02:03:43.555Z,15.50
2022-09-24T02:06:25.393Z,15.50
2022-09-24T02:08:52.281Z,15.50
2022-09-24T02:11:23.245Z,15.40
2022-09-24T02:14:13.662Z,15.50
2022-09-24T02:16:46.838Z,15.50
2022-09-24T02:19:23.627Z,15.50
2022-09-24T02:21:52.079Z,15.50
2022-09-24T02:24:33.603Z,15.40
2022-09-24T02:27:00.796Z,15.40
2022-09-24T02:29:27.717Z,15.40
2022-09-24T02:31:56.965Z,15.40
2022-09-24T02:34:32.989Z,15.40
2022-09-24T02:37:06.754Z,15.40
2022-09-24T02:39:33.960Z,15.40
2022-09-24T02:42:03.813Z,15.40
2022-09-24T02:44:31.167Z,15.40
2022-09-24T02:46:58.810Z,15.30
2022-09-24T02:49:25.851Z,15.30
2022-09-24T02:51:52.733Z,15.30
2022-09-24T02:54:19.599Z,15.30
2022-09-24T02:56:46.493Z,15.30
2022-09-24T02:59:13.608Z,15.20
2022-09-24T03:01:40.886Z,15.20
2022-09-24T03:04:08.217Z,15.20
2022-09-24T03:06:35.165Z,15.10
2022-09-24T03:09:03.411Z,15.10
2022-09-24T03:11:32.006Z,15.10
2022-09-24T03:13:59.465Z,15.10
2022-09-24T03:16:27.203Z,15.10
2022-09-24T03:18:54.143Z,15.10
2022-09-24T03:21:22.311Z,15.10
2022-09-24T03:23:49.521Z,15.10
2022-09-24T03:26:17.806Z,15.10
2022-09-24T03:28:45.116Z,15.10
2022-09-24T03:31:12.804Z,15.00
2022-09-24T03:33:43.449Z,15.00
2022-09-24T03:36:25.806Z,15.00
2022-09-24T03:38:56.276Z,15.00
2022-09-24T03:41:25.420Z,15.00
2022-09-24T03:43:52.405Z,15.00
2022-09-24T03:46:19.538Z,14.90
2022-09-24T03:48:47.486Z,14.90
2022-09-24T03:51:19.143Z,14.90
2022-09-24T03:53:47.524Z,14.90
2022-09-24T03:56:14.827Z,14.90
2022-09-24T03:58:47.379Z,14.80
2022-09-24T04:01:21.753Z,14.80
2022-09-24T04:03:50.497Z,14.80
2022-09-24T04:06:22.015Z,14.70
2022-09-24T04:08:51.854Z,14.70
2022-09-24T04:11:18.710Z,14.60
2022-09-24T04:13:45.567Z,14.60
2022-09-24T04:16:12.521Z,14.60
2022-09-24T04:18:39.701Z,14.60
2022-09-24T04:21:07.148Z,14.60
2022-09-24T04:23:34.224Z,14.60
2022-09-24T04:26:02.241Z,14.60
2022-09-24T04:28:30.289Z,14.70
2022-09-24T04:30:58.180Z,14.70
2022-09-24T04:33:25.662Z,14.70
2022-09-24T04:35:52.546Z,14.70
2022-09-24T04:38:21.244Z,14.80
2022-09-24T04:40:48.796Z,14.70
2022-09-24T04:43:15.850Z,14.80
2022-09-24T04:45:45.788Z,14.80
2022-09-24T04:48:13.281Z,14.80
2022-09-24T04:50:45.540Z,14.80
2022-09-24T04:53:13.186Z,14.80
2022-09-24T04:55:41.525Z,14.90
2022-09-24T04:58:08.551Z,14.90
2022-09-24T05:00:35.415Z,14.90
2022-09-24T05:03:03.688Z,14.90
2022-09-24T05:05:32.764Z,14.90
2022-09-24T05:08:01.392Z,14.80
2022-09-24T05:10:31.426Z,14.80
2022-09-24T05:12:58.371Z,14.80
2022-09-24T05:15:25.253Z,14.80
2022-09-24T05:17:52.151Z,14.80
2022-09-24T05:20:19.024Z,14.80
2022-09-24T05:22:49.441Z,14.70
2022-09-24T05:25:18.973Z,14.80
2022-09-24T05:27:48.475Z,14.80
2022-09-24T05:30:17.091Z,14.70
2022-09-24T05:32:44.185Z,14.70
2022-09-24T05:35:11.129Z,14.80
2022-09-24T05:37:39.120Z,14.80
2022-09-24T05:40:26.048Z,14.80
2022-09-24T05:43:00.050Z,14.80
2022-09-24T05:45:26.907Z,14.80
2022-09-24T05:47:53.812Z,14.80
2022-09-24T05:50:21.383Z,14.80
2022-09-24T05:52:48.377Z,14.80
2022-09-24T05:55:15.406Z,14.80
2022-09-24T05:57:42.287Z,14.90
2022-09-24T06:00:09.877Z,14.90
2022-09-24T06:02:39.876Z,14.90
2022-09-24T06:05:07.452Z,15.00
2022-09-24T06:07:34.373Z,15.00
2022-09-24T06:10:01.252Z,15.10
2022-09-24T06:12:28.361Z,15.10
2022-09-24T06:14:55.241Z,15.20
2022-09-24T06:17:22.214Z,15.20
2022-09-24T06:19:49.086Z,15.30
2022-09-24T06:22:15.990Z,15.40
2022-09-24T06:24:42.856Z,15.40
2022-09-24T06:27:09.740Z,15.50
2022-09-24T06:29:36.613Z,15.50
2022-09-24T06:32:03.680Z,15.60
2022-09-24T06:34:30.639Z,15.60
2022-09-24T06:36:57.529Z,15.70
2022-09-24T06:39:27.284Z,15.80
2022-09-24T06:41:56.640Z,15.80
2022-09-24T06:44:24.102Z,15.90
2022-09-24T06:46:51.552Z,16.00
2022-09-24T06:49:18.467Z,16.10
2022-09-24T06:51:45.995Z,16.10
2022-09-24T06:54:12.937Z,16.20
2022-09-24T06:56:40.358Z,16.30
2022-09-24T06:59:09.114Z,16.40
2022-09-24T07:01:36.186Z,16.40
2022-09-24T07:04:03.137Z,16.50
2022-09-24T07:06:49.985Z,16.60
2022-09-24T07:09:16.879Z,16.60
2022-09-24T07:11:46.051Z,16.80
2022-09-24T07:14:13.718Z,16.80
2022-09-24T07:16:40.601Z,16.90
2022-09-24T07:19:07.597Z,17.00
2022-09-24T07:21:35.339Z,17.00
2022-09-24T07:24:02.374Z,17.10
2022-09-24T07:26:29.943Z,17.20
2022-09-24T07:28:56.834Z,17.20
2022-09-24T07:31:26.962Z,17.30
2022-09-24T07:33:53.909Z,17.40
2022-09-24T07:36:20.775Z,17.40
2022-09-24T07:38:47.735Z,17.40
2022-09-24T07:41:14.788Z,17.40
2022-09-24T07:43:42.136Z,17.50
2022-09-24T07:46:09.268Z,17.40
2022-09-24T07:48:36.303Z,17.40
2022-09-24T07:51:03.201Z,17.50
2022-09-24T07:53:30.085Z,17.50
2022-09-24T07:55:59.650Z,17.50
2022-09-24T07:58:26.586Z,17.60
2022-09-24T08:00:53.478Z,17.60
2022-09-24T08:03:20.428Z,17.60
2022-09-24T08:05:47.593Z,17.70
2022-09-24T08:08:14.962Z,17.80
2022-09-24T08:10:42.985Z,17.80
2022-09-24T08:13:09.869Z,17.80
2022-09-24T08:15:36.827Z,17.80
2022-09-24T08:18:04.994Z,17.90
2022-09-24T08:20:37.184Z,17.90
2022-09-24T08:23:07.537Z,18.00
2022-09-24T08:25:34.403Z,18.00
2022-09-24T08:28:03.389Z,18.00
2022-09-24T08:30:30.997Z,18.10
2022-09-24T08:32:58.712Z,18.10
2022-09-24T08:35:25.629Z,18.10
2022-09-24T08:37:55.568Z,18.20
2022-09-24T08:40:30.180Z,18.20
2022-09-24T08:43:36.669Z,18.20
2022-09-24T08:46:35.202Z,18.30
2022-09-24T08:49:05.031Z,18.30
2022-09-24T08:51:41.328Z,18.40
2022-09-24T08:54:13.449Z,18.40
2022-09-24T08:56:45.689Z,18.50
2022-09-24T08:59:30.321Z,18.50
2022-09-24T09:02:35.251Z,18.60
2022-09-24T09:05:29.815Z,18.60
2022-09-24T09:08:27.387Z,18.60
2022-09-24T09:11:03.056Z,18.70
2022-09-24T09:13:44.300Z,18.70
2022-09-24T09:16:29.854Z,18.70
2022-09-24T09:19:06.515Z,18.80
2022-09-24T09:21:49.240Z,18.80
2022-09-24T09:24:27.361Z,18.90
2022-09-24T09:26:56.703Z,18.90
2022-09-24T09:29:25.978Z,18.90
2022-09-24T09:32:10.262Z,19.00
2022-09-24T09:34:53.351Z,19.10
2022-09-24T09:37:40.557Z,19.10
2022-09-24T09:40:32.466Z,19.20
2022-09-24T09:43:09.157Z,19.20
2022-09-24T09:46:12.595Z,19.30
2022-09-24T09:48:52.197Z,19.30
2022-09-24T09:51:23.158Z,19.30
2022-09-24T09:54:02.217Z,19.40
2022-09-24T09:56:34.295Z,19.40
2022-09-24T09:59:27.154Z,19.50
2022-09-24T10:01:56.706Z,19.60
2022-09-24T10:04:39.913Z,19.60
2022-09-24T10:07:16.083Z,19.70
2022-09-24T10:09:44.746Z,19.80
2022-09-24T10:12:22.781Z,19.80
2022-09-24T10:15:12.229Z,19.90
2022-09-24T10:17:39.732Z,20.00
2022-09-24T10:20:30.026Z,20.10
2022-09-24T10:23:02.310Z,20.20
2022-09-24T10:25:31.367Z,20.30
2022-09-24T10:28:26.378Z,20.30
2022-09-24T10:30:59.227Z,20.40
2022-09-24T10:33:26.702Z,20.50
2022-09-24T10:36:07.645Z,20.50
2022-09-24T10:38:34.811Z,20.60
2022-09-24T10:41:02.011Z,20.60
2022-09-24T10:43:28.986Z,20.60
2022-09-24T10:46:40.955Z,20.70
2022-09-24T10:49:22.552Z,20.80
2022-09-24T10:52:42.390Z,20.80
2022-09-24T10:55:30.836Z,20.90
2022-09-24T10:58:31.766Z,21.00
2022-09-24T11:01:27.318Z,21.00
2022-09-24T11:04:10.194Z,21.10
2022-09-24T11:07:14.865Z,21.10
2022-09-24T11:10:01.318Z,21.20
2022-09-24T11:13:23.281Z,21.30
2022-09-24T11:16:55.378Z,21.30
2022-09-24T11:20:17.383Z,21.40
2022-09-24T11:23:17.259Z,21.40
2022-09-24T11:25:59.193Z,21.50
2022-09-24T11:29:15.910Z,21.50
2022-09-24T11:32:20.799Z,21.50
2022-09-24T11:35:18.599Z,21.50
2022-09-24T11:38:18.091Z,21.50
2022-09-24T11:41:16.948Z,21.50
2022-09-24T11:44:30.825Z,21.50
2022-09-24T11:47:26.133Z,21.50
2022-09-24T11:50:38.129Z,21.50
2022-09-24T11:53:32.425Z,21.50
2022-09-24T11:56:13.577Z,21.60
2022-09-24T11:58:51.584Z,21.60
2022-09-24T12:01:25.271Z,21.60
2022-09-24T12:04:16.572Z,21.50
2022-09-24T12:06:54.199Z,21.50
2022-09-24T12:09:40.628Z,21.50
2022-09-24T12:12:15.384Z,21.50
2022-09-24T12:14:56.265Z,21.50
2022-09-24T12:17:39.636Z,21.50
2022-09-24T12:20:24.973Z,21.50
2022-09-24T12:23:08.068Z,21.50
2022-09-24T12:25:45.039Z,21.50
2022-09-24T12:28:36.013Z,21.40
2022-09-24T12:31:31.446Z,21.50
2022-09-24T12:34:16.715Z,21.50
2022-09-24T12:37:06.300Z,21.50
2022-09-24T12:39:48.092Z,21.50
2022-09-24T12:42:17.320Z,21.50
2022-09-24T12:44:51.510Z,21.40
2022-09-24T12:47:23.219Z,21.40
2022-09-24T12:49:56.530Z,21.40
2022-09-24T12:52:41.699Z,21.40
2022-09-24T12:55:25.597Z,21.40
2022-09-24T12:57:59.505Z,21.30
2022-09-24T13:00:32.446Z,21.30
2022-09-24T13:03:01.107Z,21.20
2022-09-24T13:05:42.101Z,21.20
2022-09-24T13:08:11.544Z,21.10
2022-09-24T13:10:38.489Z,21.10
2022-09-24T13:13:29.025Z,21.10
2022-09-24T13:16:17.496Z,21.00
2022-09-24T13:18:57.912Z,21.00
2022-09-24T13:21:28.131Z,21.00
2022-09-24T13:23:56.166Z,21.00
2022-09-24T13:26:30.651Z,21.00
2022-09-24T13:29:06.762Z,21.00
2022-09-24T13:31:52.243Z,21.00
2022-09-24T13:34:27.055Z,21.00
2022-09-24T13:37:11.677Z,21.00
2022-09-24T13:39:51.813Z,21.00
2022-09-24T13:42:46.122Z,21.00
2022-09-24T13:45:20.753Z,21.00
2022-09-24T13:48:04.249Z,21.10
2022-09-24T13:50:34.631Z,21.10
2022-09-24T13:53:07.610Z,21.10
2022-09-24T13:55:50.228Z,21.10
2022-09-24T13:58:39.504Z,21.10
2022-09-24T14:01:20.691Z,21.20
2022-09-24T14:04:02.838Z,21.20
2022-09-24T14:06:38.824Z,21.20
2022-09-24T14:09:35.361Z,21.10
2022-09-24T14:12:22.561Z,21.20
2022-09-24T14:14:58.080Z,21.10
2022-09-24T14:17:25.706Z,21.10
2022-09-24T14:19:57.187Z,21.10
2022-09-24T14:22:31.853Z,21.10
2022-09-24T14:25:25.655Z,21.10
2022-09-24T14:27:52.585Z,21.10
2022-09-24T14:30:25.718Z,21.10
2022-09-24T14:33:16.182Z,21.10
2022-09-24T14:35:48.581Z,21.20
2022-09-24T14:38:29.643Z,21.10
2022-09-24T14:41:04.409Z,21.20
2022-09-24T14:43:44.758Z,21.20
2022-09-24T14:46:27.737Z,21.20
2022-09-24T14:49:22.344Z,21.20
2022-09-24T14:52:01.493Z,21.10
2022-09-24T14:54:38.125Z,21.10
2022-09-24T14:57:17.267Z,21.00
2022-09-24T14:59:44.740Z,21.00
2022-09-24T15:02:37.122Z,21.00
2022-09-24T15:05:08.054Z,21.00
2022-09-24T15:07:36.148Z,20.90
2022-09-24T15:10:06.215Z,20.90
2022-09-24T15:12:36.688Z,20.90
2022-09-24T15:15:18.301Z,20.80
2022-09-24T15:17:47.323Z,20.80
2022-09-24T15:20:14.588Z,20.70
2022-09-24T15:22:41.502Z,20.70
2022-09-24T15:25:08.963Z,20.60
2022-09-24T15:27:42.151Z,20.60
2022-09-24T15:30:19.824Z,20.60
2022-09-24T15:32:49.866Z,20.60
2022-09-24T15:35:17.060Z,20.50
2022-09-24T15:37:44.873Z,20.50
2022-09-24T15:40:25.313Z,20.40
2022-09-24T15:42:52.581Z,20.40
2022-09-24T15:45:24.610Z,20.30
2022-09-24T15:47:53.305Z,20.30
2022-09-24T15:50:22.890Z,20.20
2022-09-24T15:52:57.749Z,20.20
2022-09-24T15:55:24.651Z,20.10
2022-09-24T15:57:51.539Z,20.10
2022-09-24T16:00:21.759Z,20.10
2022-09-24T16:02:54.061Z,20.00
2022-09-24T16:05:21.761Z,20.00
2022-09-24T16:07:49.152Z,19.90
2022-09-24T16:10:16.660Z,19.90
2022-09-24T16:12:43.962Z,20.00
2022-09-24T16:15:15.036Z,20.00
2022-09-24T16:17:43.324Z,19.90
2022-09-24T16:20:10.430Z,19.90
2022-09-24T16:22:37.394Z,19.90
2022-09-24T16:25:04.838Z,19.90
2022-09-24T16:27:31.734Z,19.90
2022-09-24T16:29:58.639Z,19.80
2022-09-24T16:32:25.686Z,19.90
2022-09-24T16:34:54.806Z,19.80
2022-09-24T16:37:21.843Z,19.80
2022-09-24T16:39:48.931Z,19.80
2022-09-24T16:42:16.194Z,19.70
2022-09-24T16:44:43.072Z,19.70
2022-09-24T16:47:10.250Z,19.70
2022-09-24T16:49:37.120Z,19.70
2022-09-24T16:52:04.370Z,19.60
2022-09-24T16:54:32.652Z,19.70
2022-09-24T16:57:01.738Z,19.60
2022-09-24T16:59:28.615Z,19.60
2022-09-24T17:01:55.588Z,19.60
2022-09-24T17:04:22.708Z,19.50
2022-09-24T17:06:49.693Z,19.50
2022-09-24T17:09:35.366Z,19.50
2022-09-24T17:12:02.245Z,19.40
2022-09-24T17:14:29.184Z,19.40
2022-09-24T17:16:56.081Z,19.40
2022-09-24T17:19:22.957Z,19.30
2022-09-24T17:21:54.156Z,19.30
2022-09-24T17:24:22.102Z,19.20
2022-09-24T17:26:49.395Z,19.20
2022-09-24T17:29:20.442Z,19.20
2022-09-24T17:31:47.423Z,19.20
2022-09-24T17:34:15.198Z,19.10
2022-09-24T17:36:42.902Z,19.10
2022-09-24T17:39:12.836Z,19.00
2022-09-24T17:41:39.755Z,19.00
2022-09-24T17:44:07.194Z,19.00
2022-09-24T17:46:35.922Z,19.00
2022-09-24T17:49:03.272Z,18.90
2022-09-24T17:51:38.706Z,18.90
2022-09-24T17:54:10.679Z,18.80
2022-09-24T17:56:38.965Z,18.80
2022-09-24T17:59:08.799Z,18.80
2022-09-24T18:01:37.598Z,18.80
2022-09-24T18:04:07.133Z,18.70
2022-09-24T18:06:37.510Z,18.70
2022-09-24T18:09:05.333Z,18.70
2022-09-24T18:11:52.794Z,18.60
2022-09-24T18:14:22.578Z,18.60
2022-09-24T18:16:50.263Z,18.60
2022-09-24T18:19:17.683Z,18.60
2022-09-24T18:21:46.202Z,18.50
2022-09-24T18:24:14.358Z,18.50
2022-09-24T18:26:41.330Z,18.40
2022-09-24T18:29:15.631Z,18.40
2022-09-24T18:31:43.047Z,18.30
2022-09-24T18:34:14.634Z,18.40
2022-09-24T18:36:43.505Z,18.30
2022-09-24T18:39:13.373Z,18.30
2022-09-24T18:41:41.820Z,18.30
2022-09-24T18:44:10.387Z,18.20
2022-09-24T18:46:37.492Z,18.20
2022-09-24T18:49:06.266Z,18.10
2022-09-24T18:51:36.326Z,18.10
2022-09-24T18:54:10.881Z,18.10
2022-09-24T18:56:37.845Z,18.00
2022-09-24T18:59:12.645Z,18.00
2022-09-24T19:01:40.443Z,17.90
2022-09-24T19:04:10.651Z,17.90
2022-09-24T19:06:41.155Z,17.90
2022-09-24T19:09:09.284Z,17.80
2022-09-24T19:11:36.964Z,17.80
2022-09-24T19:14:04.346Z,17.80
2022-09-24T19:16:31.762Z,17.70
2022-09-24T19:19:00.809Z,17.70
2022-09-24T19:21:27.761Z,17.70
2022-09-24T19:23:57.467Z,17.60
2022-09-24T19:26:28.745Z,17.60
2022-09-24T19:28:55.699Z,17.60
2022-09-24T19:31:36.430Z,17.50
2022-09-24T19:34:05.890Z,17.50
2022-09-24T19:36:42.841Z,17.40
2022-09-24T19:39:16.430Z,17.40
2022-09-24T19:41:45.018Z,17.40
2022-09-24T19:44:12.241Z,17.30
2022-09-24T19:46:39.532Z,17.30
2022-09-24T19:49:07.027Z,17.20
2022-09-24T19:51:35.813Z,17.20
2022-09-24T19:54:06.694Z,17.20
2022-09-24T19:56:34.022Z,17.10
2022-09-24T19:59:01.716Z,17.10
2022-09-24T20:01:31.389Z,17.00
2022-09-24T20:04:02.073Z,17.00
2022-09-24T20:06:31.148Z,17.00
2022-09-24T20:08:59.289Z,16.90
2022-09-24T20:11:26.801Z,16.90
2022-09-24T20:13:56.070Z,16.90
2022-09-24T20:16:26.815Z,16.80
2022-09-24T20:18:57.428Z,16.80
2022-09-24T20:21:31.979Z,16.80
2022-09-24T20:23:59.130Z,16.80
2022-09-24T20:26:45.649Z,16.70
2022-09-24T20:29:14.132Z,16.70
2022-09-24T20:31:45.561Z,16.70
2022-09-24T20:34:12.469Z,16.70
2022-09-24T20:36:39.376Z,16.60
2022-09-24T20:39:06.234Z,16.60
2022-09-24T20:41:33.449Z,16.60
2022-09-24T20:44:00.344Z,16.60
2022-09-24T20:46:28.726Z,16.50
2022-09-24T20:48:58.398Z,16.50
2022-09-24T20:51:28.191Z,16.50
2022-09-24T20:53:55.725Z,16.40
2022-09-24T20:56:22.791Z,16.40
2022-09-24T20:58:51.825Z,16.30
2022-09-24T21:01:19.843Z,16.20
2022-09-24T21:03:49.748Z,16.20
2022-09-24T21:06:17.954Z,16.10
2022-09-24T21:08:46.672Z,16.00
2022-09-24T21:11:18.079Z,15.90
2022-09-24T21:13:51.688Z,15.90
2022-09-24T21:16:26.073Z,15.80
2022-09-24T21:18:56.129Z,15.80
2022-09-24T21:21:27.065Z,15.80
2022-09-24T21:23:57.106Z,15.70
2022-09-24T21:26:32.263Z,15.70
2022-09-24T21:29:18.029Z,15.70
2022-09-24T21:31:47.485Z,15.70
2022-09-24T21:34:19.679Z,15.70
2022-09-24T21:36:46.803Z,15.70
2022-09-24T21:39:16.264Z,15.70
2022-09-24T21:41:44.923Z,15.70
2022-09-24T21:44:14.886Z,15.70
2022-09-24T21:46:43.868Z,15.70
2022-09-24T21:49:11.838Z,15.70
2022-09-24T21:51:39.676Z,15.80
2022-09-24T21:54:08.612Z,15.80
2022-09-24T21:56:36.793Z,15.80
2022-09-24T21:59:24.380Z,15.80
2022-09-24T22:01:51.358Z,15.80
2022-09-24T22:04:18.368Z,15.80
2022-09-24T22:06:45.668Z,15.90
2022-09-24T22:09:13.083Z,15.90
2022-09-24T22:11:40.022Z,15.90
2022-09-24T22:14:07.105Z,15.80
2022-09-24T22:16:36.257Z,15.80
2022-09-24T22:19:06.020Z,15.80
2022-09-24T22:21:33.728Z,15.90
2022-09-24T22:24:01.015Z,15.90
2022-09-24T22:26:29.568Z,15.90
2022-09-24T22:28:57.017Z,15.90
2022-09-24T22:31:23.997Z,15.90
2022-09-24T22:34:09.374Z,15.90
2022-09-24T22:36:36.457Z,15.90
2022-09-24T22:39:05.146Z,16.00
2022-09-24T22:41:35.981Z,16.00
2022-09-24T22:44:03.200Z,16.00
2022-09-24T22:46:32.189Z,16.00
2022-09-24T22:48:59.381Z,16.00
2022-09-24T22:51:27.184Z,16.00
2022-09-24T22:53:54.968Z,16.00
2022-09-24T22:56:24.978Z,16.00
2022-09-24T22:58:57.661Z,16.00
2022-09-24T23:01:29.011Z,16.00
2022-09-24T23:03:57.144Z,16.10
2022-09-24T23:06:25.188Z,16.10
2022-09-24T23:08:54.273Z,16.00
2022-09-24T23:11:25.383Z,16.00
2022-09-24T23:13:59.869Z,16.00
2022-09-24T23:16:37.962Z,16.10
2022-09-24T23:19:11.258Z,16.10
2022-09-24T23:21:38.134Z,16.10
2022-09-24T23:24:28.313Z,16.10
2022-09-24T23:26:55.189Z,16.10
2022-09-24T23:29:22.049Z,16.10
2022-09-24T23:31:48.925Z,16.10
2022-09-24T23:34:15.783Z,16.10
2022-09-24T23:36:46.167Z,16.00
2022-09-24T23:39:13.561Z,16.00
2022-09-24T23:41:40.669Z,16.00
2022-09-24T23:44:07.599Z,16.00
2022-09-24T23:46:34.588Z,16.00
2022-09-24T23:49:01.535Z,16.00
2022-09-24T23:51:28.425Z,16.00
2022-09-24T23:53:55.315Z,16.00
2022-09-24T23:56:22.219Z,16.00
2022-09-24T23:58:49.387Z,16.00
